createdAt,value
2023-06-29T00:01:02.665Z,55.64
2023-06-29T00:03:29.392Z,55.37
2023-06-29T00:05:59.819Z,54.98
2023-06-29T00:08:26.888Z,55.30
2023-06-29T00:10:53.658Z,54.89
2023-06-29T00:13:20.600Z,55.81
2023-06-29T00:15:49.305Z,55.91
2023-06-29T00:18:16.265Z,55.56
2023-06-29T00:20:43.260Z,55.83
2023-06-29T00:23:09.938Z,55.78
2023-06-29T00:25:37.220Z,56.14
2023-06-29T00:28:04.071Z,56.11
2023-06-29T00:30:30.617Z,56.11
2023-06-29T00:33:00.010Z,56.09
2023-06-29T00:35:26.799Z,55.63
2023-06-29T00:37:53.361Z,55.43
2023-06-29T00:40:19.979Z,55.36
2023-06-29T00:42:46.774Z,55.26
2023-06-29T00:45:13.745Z,55.38
2023-06-29T00:47:40.567Z,55.56
2023-06-29T00:50:09.624Z,56.37
2023-06-29T00:52:36.380Z,56.70
2023-06-29T00:55:03.492Z,56.79
2023-06-29T00:57:30.826Z,56.25
2023-06-29T01:00:00.876Z,56.41
2023-06-29T01:02:31.153Z,56.34
2023-06-29T01:04:58.095Z,56.48
2023-06-29T01:07:30.077Z,56.35
2023-06-29T01:09:57.990Z,56.33
2023-06-29T01:12:24.813Z,56.51
2023-06-29T01:14:52.208Z,56.62
2023-06-29T01:17:21.033Z,56.64
2023-06-29T01:19:49.327Z,56.74
2023-06-29T01:22:19.241Z,56.26
2023-06-29T01:24:48.120Z,56.23
2023-06-29T01:27:15.436Z,56.01
2023-06-29T01:29:42.544Z,56.49
2023-06-29T01:32:11.163Z,56.11
2023-06-29T01:34:38.510Z,56.45
2023-06-29T01:37:09.729Z,56.16
2023-06-29T01:39:38.042Z,56.36
2023-06-29T01:42:08.331Z,56.60
2023-06-29T01:44:35.059Z,56.71
2023-06-29T01:47:02.045Z,56.77
2023-06-29T01:49:28.891Z,57.16
2023-06-29T01:51:55.589Z,57.04
2023-06-29T01:54:22.160Z,57.31
2023-06-29T01:56:48.857Z,57.72
2023-06-29T01:59:16.863Z,57.80
2023-06-29T02:01:44.457Z,57.43
2023-06-29T02:04:11.308Z,57.49
2023-06-29T02:06:38.020Z,57.25
2023-06-29T02:09:04.875Z,57.50
2023-06-29T02:11:31.377Z,57.60
2023-06-29T02:13:58.026Z,57.91
2023-06-29T02:16:26.330Z,58.07
2023-06-29T02:18:52.932Z,58.19
2023-06-29T02:21:20.502Z,58.19
2023-06-29T02:23:47.047Z,58.69
2023-06-29T02:26:14.270Z,58.28
2023-06-29T02:28:40.826Z,58.72
2023-06-29T02:31:07.410Z,58.39
2023-06-29T02:33:36.070Z,58.21
2023-06-29T02:36:03.787Z,58.38
2023-06-29T02:38:30.387Z,58.70
2023-06-29T02:40:57.171Z,58.54
2023-06-29T02:43:23.851Z,58.71
2023-06-29T02:45:50.487Z,58.74
2023-06-29T02:48:18.779Z,58.32
2023-06-29T02:50:46.797Z,58.51
2023-06-29T02:53:17.424Z,58.02
2023-06-29T02:55:44.617Z,58.07
2023-06-29T02:58:11.399Z,57.70
2023-06-29T03:00:38.367Z,57.42
2023-06-29T03:03:05.024Z,57.61
2023-06-29T03:05:32.298Z,57.59
2023-06-29T03:08:00.292Z,58.18
2023-06-29T03:10:27.004Z,58.46
2023-06-29T03:12:53.565Z,58.46
2023-06-29T03:15:20.152Z,58.58
2023-06-29T03:17:46.771Z,58.52
2023-06-29T03:20:14.896Z,58.51
2023-06-29T03:22:41.494Z,58.62
2023-06-29T03:25:10.248Z,58.97
2023-06-29T03:27:36.969Z,59.01
2023-06-29T03:30:04.227Z,58.73
2023-06-29T03:32:30.819Z,58.40
2023-06-29T03:34:57.430Z,58.56
2023-06-29T03:37:23.943Z,58.51
2023-06-29T03:39:50.539Z,58.28
2023-06-29T03:42:18.432Z,58.46
2023-06-29T03:44:44.984Z,58.14
2023-06-29T03:47:11.586Z,58.09
2023-06-29T03:49:38.089Z,58.14
2023-06-29T03:52:04.978Z,57.83
2023-06-29T03:54:31.526Z,57.69
2023-06-29T03:56:58.130Z,57.72
2023-06-29T03:59:26.407Z,57.71
2023-06-29T04:01:53.029Z,57.33
2023-06-29T04:04:19.592Z,57.31
2023-06-29T04:06:46.151Z,57.67
2023-06-29T04:09:13.027Z,57.71
2023-06-29T04:11:39.635Z,58.15
2023-06-29T04:14:06.508Z,58.02
2023-06-29T04:16:34.566Z,57.99
2023-06-29T04:19:01.170Z,58.13
2023-06-29T04:21:27.705Z,57.93
2023-06-29T04:23:54.215Z,58.12
2023-06-29T04:26:21.964Z,57.71
2023-06-29T04:28:48.712Z,57.62
2023-06-29T04:31:15.349Z,57.58
2023-06-29T04:33:44.294Z,57.54
2023-06-29T04:36:13.862Z,57.24
2023-06-29T04:38:40.427Z,56.95
2023-06-29T04:41:10.510Z,57.11
2023-06-29T04:43:37.908Z,57.01
2023-06-29T04:46:05.293Z,56.91
2023-06-29T04:48:38.424Z,56.68
2023-06-29T04:51:07.028Z,56.65
2023-06-29T04:53:34.134Z,56.47
2023-06-29T04:56:02.313Z,56.35
2023-06-29T04:58:29.244Z,56.11
2023-06-29T05:00:56.111Z,56.08
2023-06-29T05:03:22.984Z,56.08
2023-06-29T05:05:49.692Z,55.80
2023-06-29T05:08:17.761Z,55.78
2023-06-29T05:10:44.549Z,55.48
2023-06-29T05:13:11.104Z,55.17
2023-06-29T05:15:37.664Z,55.36
2023-06-29T05:18:04.442Z,55.27
2023-06-29T05:20:31.054Z,54.84
2023-06-29T05:22:57.732Z,54.93
2023-06-29T05:25:25.698Z,54.87
2023-06-29T05:27:52.216Z,56.50
2023-06-29T05:30:19.037Z,56.75
2023-06-29T05:32:45.590Z,56.85
2023-06-29T05:35:12.246Z,55.37
2023-06-29T05:37:38.956Z,55.49
2023-06-29T05:40:06.207Z,54.97
2023-06-29T05:42:34.285Z,54.76
2023-06-29T05:45:00.899Z,54.91
2023-06-29T05:47:27.616Z,54.43
2023-06-29T05:49:54.255Z,54.88
2023-06-29T05:52:20.751Z,55.34
2023-06-29T05:54:47.376Z,54.34
2023-06-29T05:57:13.972Z,54.29
2023-06-29T05:59:41.889Z,55.02
2023-06-29T06:02:09.503Z,55.03
2023-06-29T06:04:36.640Z,54.32
2023-06-29T06:07:03.553Z,53.19
2023-06-29T06:09:30.178Z,52.76
2023-06-29T06:11:56.854Z,52.96
2023-06-29T06:14:23.352Z,53.99
2023-06-29T06:16:51.579Z,53.24
2023-06-29T06:19:18.138Z,53.60
2023-06-29T06:21:44.724Z,52.74
2023-06-29T06:24:11.564Z,52.63
2023-06-29T06:26:38.103Z,52.84
2023-06-29T06:29:04.710Z,53.09
2023-06-29T06:31:34.809Z,52.62
2023-06-29T06:34:04.090Z,52.12
2023-06-29T06:36:31.362Z,51.87
2023-06-29T06:38:58.223Z,51.93
2023-06-29T06:41:24.807Z,51.72
2023-06-29T06:43:51.438Z,51.46
2023-06-29T06:46:18.007Z,51.86
2023-06-29T06:48:44.628Z,51.67
2023-06-29T06:51:12.549Z,51.32
2023-06-29T06:53:39.096Z,51.56
2023-06-29T06:56:05.640Z,51.21
2023-06-29T06:58:32.425Z,49.91
2023-06-29T07:00:59.402Z,49.52
2023-06-29T07:03:27.189Z,49.52
2023-06-29T07:05:57.101Z,48.01
2023-06-29T07:08:25.046Z,48.50
2023-06-29T07:10:52.703Z,48.43
2023-06-29T07:13:19.741Z,48.87
2023-06-29T07:15:47.145Z,48.48
2023-06-29T07:18:13.683Z,48.61
2023-06-29T07:25:42.700Z,46.12
2023-06-29T07:28:09.468Z,46.52
2023-06-29T07:30:36.407Z,46.31
2023-06-29T07:33:03.213Z,47.07
2023-06-29T07:35:30.075Z,47.77
2023-06-29T07:37:56.647Z,47.42
2023-06-29T07:40:23.258Z,47.11
2023-06-29T07:42:51.171Z,45.67
2023-06-29T07:45:17.865Z,45.72
2023-06-29T07:47:44.488Z,45.20
2023-06-29T07:50:11.943Z,45.66
2023-06-29T07:52:39.023Z,45.77
2023-06-29T07:55:05.768Z,44.89
2023-06-29T08:00:04.034Z,45.11
2023-06-29T08:02:46.364Z,44.21
2023-06-29T08:07:43.589Z,43.24
2023-06-29T08:10:10.634Z,42.77
2023-06-29T08:12:37.257Z,42.15
2023-06-29T08:15:05.714Z,43.67
2023-06-29T08:17:32.329Z,43.50
2023-06-29T08:19:59.014Z,43.05
2023-06-29T08:22:25.605Z,43.19
2023-06-29T08:24:52.533Z,41.66
2023-06-29T08:27:20.706Z,41.92
2023-06-29T08:29:47.337Z,42.42
2023-06-29T08:32:15.649Z,42.20
2023-06-29T08:34:42.776Z,42.30
2023-06-29T08:37:09.354Z,42.26
2023-06-29T08:39:35.901Z,39.74
2023-06-29T08:42:05.144Z,40.18
2023-06-29T08:44:34.765Z,40.92
2023-06-29T08:47:02.692Z,40.60
2023-06-29T08:49:34.286Z,39.62
2023-06-29T08:52:03.948Z,38.98
2023-06-29T08:54:32.721Z,37.67
2023-06-29T08:57:00.369Z,38.57
2023-06-29T08:59:27.616Z,39.40
2023-06-29T09:01:54.314Z,38.89
2023-06-29T09:04:21.276Z,37.36
2023-06-29T09:06:49.301Z,37.77
2023-06-29T09:09:18.115Z,38.44
2023-06-29T09:11:44.676Z,38.01
2023-06-29T09:14:11.326Z,38.17
2023-06-29T09:16:49.567Z,38.12
2023-06-29T09:19:16.130Z,37.35
2023-06-29T09:21:45.101Z,35.96
2023-06-29T09:24:14.287Z,34.37
2023-06-29T09:26:41.299Z,35.18
2023-06-29T09:29:07.958Z,35.09
2023-06-29T09:31:36.809Z,35.31
2023-06-29T09:34:21.413Z,35.21
2023-06-29T09:36:48.585Z,34.78
2023-06-29T09:39:21.889Z,33.76
2023-06-29T09:41:49.780Z,34.39
2023-06-29T09:44:23.310Z,34.31
2023-06-29T09:49:23.572Z,34.93
2023-06-29T09:58:32.279Z,34.73
2023-06-29T10:09:10.097Z,33.70
2023-06-29T10:11:42.301Z,33.46
2023-06-29T10:17:24.535Z,33.64
2023-06-29T23:24:07.733Z,45.24
2023-06-29T23:30:10.387Z,45.04
2023-06-29T23:32:40.186Z,45.19
2023-06-29T23:37:48.563Z,45.40
2023-06-29T23:40:16.300Z,45.69
2023-06-29T23:42:45.956Z,45.68
2023-06-29T23:45:13.004Z,45.73
2023-06-29T23:47:41.573Z,46.46
2023-06-29T23:50:11.327Z,46.15
2023-06-29T23:52:39.428Z,46.21
2023-06-29T23:55:07.398Z,46.13
2023-06-29T23:57:34.173Z,48.17
